createdAt,value
2022-11-05T00:05:58.320Z,0.00
2022-11-05T00:15:58.360Z,0.00
2022-11-05T00:25:58.668Z,0.00
2022-11-05T00:35:58.685Z,0.00
2022-11-05T00:45:59.239Z,0.00
2022-11-05T00:55:59.083Z,0.00
2022-11-05T01:05:59.483Z,0.00
2022-11-05T01:15:59.499Z,0.00
2022-11-05T01:25:59.833Z,0.00
2022-11-05T01:35:59.844Z,0.00
2022-11-05T01:46:00.177Z,0.00
2022-11-05T01:56:00.208Z,0.00
2022-11-05T02:06:00.522Z,0.00
2022-11-05T02:16:00.553Z,0.00
2022-11-05T02:26:00.870Z,0.00
2022-11-05T02:36:03.077Z,0.00
2022-11-05T02:46:01.226Z,0.00
2022-11-05T02:56:01.263Z,0.00
2022-11-05T03:06:01.673Z,0.00
2022-11-05T03:16:01.701Z,0.00
2022-11-05T03:26:02.031Z,0.00
2022-11-05T03:36:02.106Z,0.00
2022-11-05T03:46:02.165Z,0.00
2022-11-05T03:56:02.398Z,0.00
2022-11-05T04:06:02.721Z,0.00
2022-11-05T04:16:02.741Z,0.00
2022-11-05T04:26:03.069Z,0.00
2022-11-05T04:36:03.086Z,0.00
2022-11-05T04:46:03.430Z,0.00
2022-11-05T04:56:03.451Z,0.00
2022-11-05T05:06:04.268Z,0.00
2022-11-05T05:16:03.739Z,0.00
2022-11-05T05:26:04.021Z,0.00
2022-11-05T05:36:09.958Z,0.00
2022-11-05T05:46:05.413Z,0.00
2022-11-05T05:56:04.545Z,0.00
2022-11-05T06:06:04.561Z,4.00
2022-11-05T06:16:04.903Z,8.00
2022-11-05T06:26:04.926Z,16.00
2022-11-05T06:36:05.257Z,32.00
2022-11-05T06:46:05.272Z,44.00
2022-11-05T06:56:05.601Z,64.00
2022-11-05T07:06:05.634Z,92.00
2022-11-05T07:16:05.940Z,92.00
2022-11-05T07:26:06.054Z,92.00
2022-11-05T07:36:06.270Z,116.00
2022-11-05T07:46:11.150Z,252.00
2022-11-05T07:56:07.560Z,216.00
2022-11-05T08:06:06.869Z,156.00
2022-11-05T08:16:06.899Z,212.00
2022-11-05T08:26:07.162Z,224.00
2022-11-05T08:36:07.384Z,248.00
2022-11-05T08:46:08.650Z,180.00
2022-11-05T08:56:07.883Z,172.00
2022-11-05T09:06:08.181Z,220.00
2022-11-05T09:16:08.209Z,280.00
2022-11-05T09:26:08.535Z,304.00
2022-11-05T09:36:08.555Z,300.00
2022-11-05T09:46:08.877Z,352.00
2022-11-05T09:56:08.907Z,396.00
2022-11-05T10:06:09.236Z,492.00
2022-11-05T10:16:09.266Z,880.00
2022-11-05T10:26:09.578Z,540.00
2022-11-05T10:36:09.603Z,520.00
2022-11-05T10:46:09.934Z,592.00
2022-11-05T10:56:10.081Z,988.00
2022-11-05T11:06:10.170Z,488.00
2022-11-05T11:16:10.187Z,412.00
2022-11-05T11:26:10.524Z,328.00
2022-11-05T11:36:10.548Z,312.00
2022-11-05T11:46:14.912Z,248.00
2022-11-05T11:56:10.971Z,284.00
2022-11-05T12:06:11.331Z,304.00
2022-11-05T12:16:11.374Z,268.00
2022-11-05T12:26:11.701Z,304.00
2022-11-05T12:36:11.739Z,300.00
2022-11-05T12:46:12.019Z,256.00
2022-11-05T12:56:12.050Z,224.00
2022-11-05T13:06:12.475Z,248.00
2022-11-05T13:16:12.649Z,212.00
2022-11-05T13:26:17.053Z,324.00
2022-11-05T13:36:14.091Z,536.00
2022-11-05T13:46:14.390Z,668.00
2022-11-05T13:56:13.290Z,2940.00
2022-11-05T14:06:13.716Z,840.00
2022-11-05T14:16:13.705Z,544.00
2022-11-05T14:26:13.728Z,500.00
2022-11-05T14:36:14.056Z,396.00
2022-11-05T14:46:14.075Z,272.00
2022-11-05T14:56:14.396Z,244.00
2022-11-05T15:06:14.411Z,160.00
2022-11-05T15:16:14.748Z,128.00
2022-11-05T15:26:15.756Z,80.00
2022-11-05T15:36:16.603Z,48.00
2022-11-05T15:46:15.329Z,28.00
2022-11-05T15:56:15.243Z,12.00
2022-11-05T16:06:15.485Z,8.00
2022-11-05T16:16:16.015Z,0.00
2022-11-05T16:26:25.378Z,0.00
2022-11-05T16:36:17.067Z,0.00
2022-11-05T16:46:16.160Z,0.00
2022-11-05T16:56:16.416Z,0.00
2022-11-05T17:06:16.462Z,0.00
2022-11-05T17:16:16.500Z,0.00
2022-11-05T17:26:17.038Z,0.00
2022-11-05T17:36:17.164Z,0.00
2022-11-05T17:46:17.282Z,0.00
2022-11-05T17:56:27.214Z,0.00
2022-11-05T18:06:18.266Z,0.00
2022-11-05T18:16:17.814Z,0.00
2022-11-05T18:26:17.923Z,0.00
2022-11-05T18:36:18.149Z,0.00
2022-11-05T18:46:43.019Z,12.00
2022-11-05T18:56:19.330Z,0.00
2022-11-05T19:06:18.335Z,0.00
2022-11-05T19:16:19.174Z,0.00
2022-11-05T19:26:20.063Z,0.00
2022-11-05T19:36:18.623Z,0.00
2022-11-05T19:46:19.210Z,0.00
2022-11-05T19:56:19.357Z,0.00
2022-11-05T20:06:19.542Z,0.00
2022-11-05T20:16:20.306Z,0.00
2022-11-05T20:26:19.865Z,0.00
2022-11-05T20:36:19.990Z,0.00
2022-11-05T20:46:20.200Z,0.00
2022-11-05T20:56:20.286Z,0.00
2022-11-05T21:06:20.473Z,0.00
2022-11-05T21:16:20.603Z,0.00
2022-11-05T21:26:24.475Z,0.00
2022-11-05T21:36:23.706Z,0.00
2022-11-05T21:46:21.093Z,0.00
2022-11-05T21:56:21.015Z,0.00
2022-11-05T22:06:21.300Z,0.00
2022-11-05T22:16:21.319Z,0.00
2022-11-05T22:26:21.665Z,0.00
2022-11-05T22:36:21.705Z,0.00
2022-11-05T22:46:22.002Z,0.00
2022-11-05T22:56:22.031Z,0.00
2022-11-05T23:06:22.249Z,0.00
2022-11-05T23:16:22.276Z,0.00
2022-11-05T23:26:22.602Z,0.00
2022-11-05T23:36:22.622Z,0.00
2022-11-05T23:46:22.989Z,0.00
2022-11-05T23:56:23.007Z,0.00
